createdAt,value
2023-02-17T00:01:33.877Z,90.30
2023-02-17T00:04:02.183Z,86.10
2023-02-17T00:06:32.309Z,90.70
2023-02-17T00:09:00.582Z,87.60
2023-02-17T00:11:29.195Z,91.80
2023-02-17T00:13:57.713Z,92.80
2023-02-17T00:16:27.416Z,97.40
2023-02-17T00:18:58.330Z,95.30
2023-02-17T00:21:29.460Z,91.10
2023-02-17T00:23:59.329Z,93.50
2023-02-17T00:26:27.524Z,86.50
2023-02-17T00:28:55.477Z,95.40
2023-02-17T00:31:24.083Z,89.70
2023-02-17T00:33:56.465Z,87.10
2023-02-17T00:36:26.765Z,90.80
2023-02-17T00:38:57.256Z,89.50
2023-02-17T00:41:28.592Z,87.90
2023-02-17T00:43:59.518Z,91.50
2023-02-17T00:46:27.976Z,89.40
2023-02-17T00:48:56.421Z,85.30
2023-02-17T00:51:25.306Z,94.50
2023-02-17T00:53:53.667Z,92.80
2023-02-17T00:56:22.033Z,91.30
2023-02-17T00:58:50.297Z,94.90
2023-02-17T01:01:18.537Z,82.40
2023-02-17T01:03:47.007Z,86.00
2023-02-17T01:06:24.651Z,87.60
2023-02-17T01:08:52.879Z,88.70
2023-02-17T01:11:33.124Z,86.30
2023-02-17T01:14:03.604Z,89.60
2023-02-17T01:16:37.683Z,86.20
2023-02-17T01:19:09.365Z,89.00
2023-02-17T01:21:39.022Z,84.70
2023-02-17T01:24:08.591Z,88.00
2023-02-17T01:26:37.429Z,88.40
2023-02-17T01:29:07.021Z,81.90
2023-02-17T01:31:35.122Z,84.30
2023-02-17T01:34:06.416Z,87.10
2023-02-17T01:36:34.418Z,83.20
2023-02-17T01:39:02.516Z,80.70
2023-02-17T01:41:30.728Z,83.30
2023-02-17T01:44:12.137Z,86.20
2023-02-17T01:46:42.640Z,83.50
2023-02-17T01:52:03.778Z,85.40
2023-02-17T01:54:41.929Z,80.80
2023-02-17T01:57:13.127Z,80.50
2023-02-17T01:59:42.142Z,81.50
2023-02-17T02:02:10.948Z,87.70
2023-02-17T02:04:42.255Z,76.20
2023-02-17T02:07:21.273Z,75.20
2023-02-17T02:09:56.759Z,82.70
2023-02-17T02:12:27.147Z,77.90
2023-02-17T02:15:00.774Z,80.20
2023-02-17T02:18:02.607Z,79.50
2023-02-17T02:20:46.289Z,81.50
2023-02-17T02:23:42.302Z,83.10
2023-02-17T02:26:41.452Z,75.70
2023-02-17T02:29:27.308Z,84.00
2023-02-17T02:32:33.185Z,80.00
2023-02-17T02:35:28.616Z,78.50
2023-02-17T02:38:07.219Z,76.50
2023-02-17T02:40:40.886Z,73.90
2023-02-17T02:43:09.913Z,80.60
2023-02-17T02:45:38.211Z,77.50
2023-02-17T02:48:06.536Z,81.40
2023-02-17T02:50:47.914Z,86.40
2023-02-17T02:53:41.006Z,81.10
2023-02-17T02:56:29.081Z,75.90
2023-02-17T02:59:13.682Z,81.40
2023-02-17T03:01:45.813Z,82.00
2023-02-17T03:04:26.692Z,78.90
2023-02-17T03:07:04.731Z,76.30
2023-02-17T03:09:33.543Z,78.70
2023-02-17T03:12:01.493Z,83.90
2023-02-17T03:14:37.882Z,81.30
2023-02-17T03:17:05.984Z,75.30
2023-02-17T03:19:34.025Z,78.40
2023-02-17T03:22:10.426Z,84.90
2023-02-17T03:24:38.742Z,80.00
2023-02-17T03:27:08.217Z,80.90
2023-02-17T03:29:36.282Z,87.10
2023-02-17T03:32:05.340Z,84.30
2023-02-17T03:34:34.094Z,83.00
2023-02-17T03:37:02.121Z,83.10
2023-02-17T03:39:30.383Z,88.20
2023-02-17T03:41:58.622Z,85.10
2023-02-17T03:44:26.582Z,79.30
2023-02-17T03:46:54.718Z,90.60
2023-02-17T03:49:22.760Z,84.60
2023-02-17T03:51:50.670Z,83.20
2023-02-17T03:54:18.685Z,79.70
2023-02-17T03:56:46.723Z,80.60
2023-02-17T03:59:14.703Z,83.10
2023-02-17T04:02:58.692Z,86.60
2023-02-17T04:05:27.174Z,84.40
2023-02-17T04:07:55.813Z,79.50
2023-02-17T04:10:23.884Z,82.30
2023-02-17T04:12:52.115Z,81.70
2023-02-17T04:15:20.327Z,82.90
2023-02-17T04:17:49.103Z,84.70
2023-02-17T04:20:17.270Z,85.30
2023-02-17T04:22:46.377Z,87.80
2023-02-17T04:25:14.414Z,83.00
2023-02-17T04:27:42.313Z,87.30
2023-02-17T04:34:38.559Z,91.30
2023-02-17T04:37:07.017Z,82.20
2023-02-17T04:39:34.946Z,88.90
2023-02-17T04:42:03.030Z,90.80
2023-02-17T04:44:31.956Z,87.00
2023-02-17T04:46:59.972Z,88.60
2023-02-17T04:49:28.022Z,90.20
2023-02-17T04:51:56.786Z,90.30
2023-02-17T04:54:24.861Z,90.60
2023-02-17T04:56:52.883Z,85.00
2023-02-17T04:59:20.812Z,87.10
2023-02-17T05:01:48.801Z,92.60
2023-02-17T05:04:16.854Z,95.90
2023-02-17T05:06:44.813Z,92.30
2023-02-17T05:09:12.791Z,92.20
2023-02-17T05:11:40.804Z,96.00
2023-02-17T05:14:09.473Z,95.40
2023-02-17T05:16:37.601Z,97.50
2023-02-17T05:19:05.912Z,89.50
2023-02-17T05:21:34.232Z,93.30
2023-02-17T05:24:02.529Z,97.30
2023-02-17T05:26:31.051Z,94.40
2023-02-17T05:28:59.022Z,98.80
2023-02-17T05:31:27.065Z,95.00
2023-02-17T05:33:55.913Z,89.10
2023-02-17T05:36:23.968Z,86.30
2023-02-17T05:38:52.133Z,90.80
2023-02-17T05:41:20.470Z,94.20
2023-02-17T05:43:48.591Z,88.50
2023-02-17T05:46:16.755Z,84.00
2023-02-17T05:48:46.018Z,96.70
2023-02-17T05:51:17.222Z,96.90
2023-02-17T05:53:45.498Z,90.60
2023-02-17T05:56:13.607Z,86.50
2023-02-17T05:58:41.654Z,90.40
2023-02-17T06:01:11.180Z,93.10
2023-02-17T06:03:39.822Z,82.70
2023-02-17T06:06:09.735Z,85.00
2023-02-17T06:08:37.869Z,88.30
2023-02-17T06:11:06.193Z,80.90
2023-02-17T06:13:34.288Z,86.30
2023-02-17T06:16:02.919Z,89.90
2023-02-17T06:18:31.599Z,93.90
2023-02-17T06:20:59.774Z,83.60
2023-02-17T06:23:28.358Z,91.50
2023-02-17T06:25:56.568Z,83.50
2023-02-17T06:28:24.711Z,85.60
2023-02-17T06:30:52.752Z,83.30
2023-02-17T06:33:20.735Z,82.30
2023-02-17T06:35:52.392Z,82.70
2023-02-17T06:38:20.740Z,84.90
2023-02-17T06:40:48.895Z,84.40
2023-02-17T06:43:16.885Z,83.10
2023-02-17T06:45:44.908Z,81.90
2023-02-17T06:48:13.132Z,88.20
2023-02-17T06:50:41.383Z,82.20
2023-02-17T06:53:09.448Z,74.70
2023-02-17T06:55:39.149Z,88.80
2023-02-17T06:58:08.390Z,82.00
2023-02-17T07:00:36.592Z,77.10
2023-02-17T07:03:04.771Z,80.40
2023-02-17T07:05:37.616Z,77.70
2023-02-17T07:08:07.048Z,88.20
2023-02-17T07:10:35.128Z,83.50
2023-02-17T07:13:03.524Z,78.90
2023-02-17T07:15:31.582Z,91.20
2023-02-17T07:18:01.725Z,71.70
2023-02-17T07:20:32.163Z,71.50
2023-02-17T07:23:01.366Z,71.50
2023-02-17T07:25:29.695Z,74.90
2023-02-17T07:27:57.811Z,74.90
2023-02-17T07:30:25.960Z,81.30
2023-02-17T07:32:54.097Z,72.60
2023-02-17T07:35:22.440Z,76.80
2023-02-17T07:37:51.911Z,73.90
2023-02-17T07:40:20.161Z,70.20
2023-02-17T07:42:48.212Z,69.50
2023-02-17T07:45:16.276Z,66.40
2023-02-17T07:47:44.655Z,73.90
2023-02-17T07:50:13.249Z,72.70
2023-02-17T07:52:41.430Z,70.80
2023-02-17T07:55:09.549Z,76.10
2023-02-17T07:57:37.797Z,66.30
2023-02-17T08:00:08.634Z,68.10
2023-02-17T08:02:41.140Z,75.20
2023-02-17T08:05:09.357Z,62.50
2023-02-17T08:07:38.229Z,64.50
2023-02-17T08:10:25.964Z,66.30
2023-02-17T08:13:12.701Z,63.50
2023-02-17T08:15:41.411Z,61.40
2023-02-17T08:18:10.237Z,68.50
2023-02-17T08:20:38.778Z,62.40
2023-02-17T08:23:07.149Z,58.60
2023-02-17T08:25:36.524Z,60.00
2023-02-17T08:28:06.223Z,58.60
2023-02-17T08:30:38.623Z,65.20
2023-02-17T08:33:07.251Z,61.50
2023-02-17T08:35:35.525Z,55.90
2023-02-17T08:38:03.853Z,58.90
2023-02-17T08:40:32.020Z,56.30
2023-02-17T08:43:02.911Z,58.20
2023-02-17T08:45:31.670Z,55.90
2023-02-17T08:47:59.833Z,65.80
2023-02-17T08:50:27.976Z,62.20
2023-02-17T08:52:56.615Z,59.60
2023-02-17T08:55:25.133Z,64.10
2023-02-17T08:57:54.104Z,64.60
2023-02-17T09:00:23.004Z,59.40
2023-02-17T09:02:51.176Z,55.30
2023-02-17T09:05:19.437Z,63.70
2023-02-17T09:07:47.922Z,62.50
2023-02-17T09:10:16.389Z,65.40
2023-02-17T09:12:44.608Z,62.70
2023-02-17T09:15:12.955Z,55.80
2023-02-17T09:17:41.864Z,55.80
2023-02-17T09:20:23.901Z,61.30
2023-02-17T09:22:53.355Z,60.40
2023-02-17T09:25:22.014Z,61.10
2023-02-17T09:27:50.357Z,54.40
2023-02-17T09:30:18.765Z,58.00
2023-02-17T09:32:47.026Z,62.50
2023-02-17T09:35:16.819Z,52.00
2023-02-17T09:37:45.283Z,52.00
2023-02-17T09:40:23.954Z,59.60
2023-02-17T09:42:52.297Z,53.00
2023-02-17T09:45:32.474Z,62.20
2023-02-17T09:48:06.440Z,54.70
2023-02-17T09:50:45.773Z,59.90
2023-02-17T09:53:24.721Z,54.90
2023-02-17T09:55:55.944Z,60.40
2023-02-17T09:58:29.102Z,61.20
2023-02-17T10:01:00.508Z,54.80
2023-02-17T10:03:43.357Z,53.40
2023-02-17T10:06:24.477Z,57.50
2023-02-17T10:08:59.382Z,56.20
2023-02-17T10:11:48.281Z,60.20
2023-02-17T10:14:22.867Z,61.70
2023-02-17T10:17:02.652Z,56.60
2023-02-17T10:19:39.077Z,61.80
2023-02-17T10:22:20.273Z,59.10
2023-02-17T10:24:48.527Z,56.20
2023-02-17T10:27:39.989Z,60.60
2023-02-17T10:30:54.034Z,65.70
2023-02-17T10:33:53.572Z,58.70
2023-02-17T10:36:42.702Z,62.20
2023-02-17T10:39:26.488Z,64.80
2023-02-17T10:41:56.105Z,66.20
2023-02-17T10:44:25.847Z,63.50
2023-02-17T10:46:54.675Z,63.20
2023-02-17T10:49:40.167Z,59.00
2023-02-17T10:52:15.967Z,61.00
2023-02-17T10:55:22.381Z,57.50
2023-02-17T10:58:05.725Z,62.90
2023-02-17T11:04:49.301Z,60.60
2023-02-17T11:07:23.832Z,66.50
2023-02-17T11:09:59.492Z,61.30
2023-02-17T11:12:40.397Z,64.60
2023-02-17T11:15:24.426Z,65.90
2023-02-17T11:17:53.911Z,64.90
2023-02-17T11:20:22.716Z,69.00
2023-02-17T11:23:05.246Z,67.90
2023-02-17T11:25:35.567Z,61.70
2023-02-17T11:28:13.370Z,65.40
2023-02-17T11:30:51.183Z,63.60
2023-02-17T11:33:39.731Z,63.70
2023-02-17T11:36:13.676Z,57.90
2023-02-17T11:38:44.957Z,57.60
2023-02-17T11:41:13.115Z,55.30
2023-02-17T11:43:52.909Z,63.80
2023-02-17T11:46:32.157Z,59.50
2023-02-17T11:49:24.140Z,56.40
2023-02-17T11:51:58.472Z,55.50
2023-02-17T11:54:36.720Z,57.70
2023-02-17T11:57:32.633Z,55.00
2023-02-17T12:00:22.907Z,62.30
2023-02-17T12:03:18.791Z,52.70
2023-02-17T12:05:52.949Z,56.70
2023-02-17T12:08:48.750Z,58.70
2023-02-17T12:11:22.932Z,55.10
2023-02-17T12:13:59.952Z,57.80
2023-02-17T12:16:43.748Z,53.80
2023-02-17T12:19:19.524Z,48.40
2023-02-17T12:22:12.804Z,51.00
2023-02-17T12:24:56.254Z,53.30
2023-02-17T12:27:55.209Z,52.10
2023-02-17T12:30:49.660Z,47.90
2023-02-17T12:33:49.100Z,45.20
2023-02-17T12:36:19.597Z,46.90
2023-02-17T12:38:57.378Z,48.20
2023-02-17T12:41:32.086Z,41.60
2023-02-17T12:44:06.972Z,48.40
2023-02-17T12:46:41.261Z,43.50
2023-02-17T12:49:36.081Z,41.70
2023-02-17T12:52:27.150Z,43.40
2023-02-17T12:55:00.836Z,37.10
2023-02-17T12:57:49.019Z,38.70
2023-02-17T13:00:30.327Z,39.20
2023-02-17T13:03:03.574Z,40.80
2023-02-17T13:05:42.212Z,36.40
2023-02-17T13:08:14.741Z,37.30
2023-02-17T13:10:43.137Z,37.50
2023-02-17T13:13:26.189Z,35.30
2023-02-17T13:16:13.433Z,38.40
2023-02-17T13:18:48.931Z,38.90
2023-02-17T13:21:22.926Z,38.00
2023-02-17T13:24:03.091Z,42.30
2023-02-17T13:26:33.461Z,43.80
2023-02-17T13:29:26.302Z,39.80
2023-02-17T13:32:00.230Z,41.30
2023-02-17T13:34:43.757Z,44.80
2023-02-17T13:37:32.302Z,37.80
2023-02-17T13:40:23.117Z,37.30
2023-02-17T13:42:56.707Z,38.60
2023-02-17T13:45:24.659Z,38.90
2023-02-17T13:47:56.705Z,37.90
2023-02-17T13:50:32.875Z,38.20
2023-02-17T13:53:22.947Z,33.70
2023-02-17T13:55:51.996Z,38.80
2023-02-17T13:58:25.357Z,34.30
2023-02-17T14:00:54.730Z,37.00
2023-02-17T14:03:30.856Z,40.80
2023-02-17T14:06:01.288Z,37.20
2023-02-17T14:08:32.207Z,38.40
2023-02-17T14:11:13.643Z,36.70
2023-02-17T14:13:45.658Z,36.40
2023-02-17T14:16:35.486Z,39.20
2023-02-17T14:19:14.475Z,36.80
2023-02-17T14:21:45.565Z,31.80
2023-02-17T14:24:33.796Z,38.10
2023-02-17T14:27:08.958Z,39.70
2023-02-17T14:29:48.538Z,39.20
2023-02-17T14:32:38.294Z,42.10
2023-02-17T14:35:12.554Z,36.40
2023-02-17T14:37:42.726Z,38.90
2023-02-17T14:40:31.176Z,38.30
2023-02-17T14:42:59.318Z,42.90
2023-02-17T14:45:27.544Z,39.00
2023-02-17T14:47:57.781Z,43.60
2023-02-17T14:50:26.007Z,42.30
2023-02-17T14:52:54.265Z,45.70
2023-02-17T14:55:54.147Z,43.60
2023-02-17T14:58:25.201Z,41.00
2023-02-17T15:00:53.312Z,47.60
2023-02-17T15:03:21.443Z,50.10
2023-02-17T15:05:50.125Z,51.90
2023-02-17T15:08:29.774Z,45.90
2023-02-17T15:10:57.984Z,43.90
2023-02-17T15:13:26.584Z,47.60
2023-02-17T15:15:54.987Z,52.90
2023-02-17T15:18:23.939Z,52.50
2023-02-17T15:20:52.381Z,58.30
2023-02-17T15:23:23.816Z,55.00
2023-02-17T15:25:53.981Z,49.40
2023-02-17T15:32:30.362Z,42.10
2023-02-17T15:35:00.348Z,43.00
2023-02-17T15:37:29.508Z,45.00
2023-02-17T15:39:58.027Z,42.10
2023-02-17T15:42:26.534Z,41.50
2023-02-17T15:44:54.525Z,37.80
2023-02-17T15:47:22.591Z,37.60
2023-02-17T15:49:50.725Z,38.30
2023-02-17T15:52:18.729Z,36.50
2023-02-17T15:54:48.328Z,40.20
2023-02-17T15:57:23.548Z,35.80
2023-02-17T15:59:55.571Z,31.00
2023-02-17T16:02:25.824Z,37.80
2023-02-17T16:04:57.433Z,31.80
2023-02-17T16:07:25.342Z,30.00
2023-02-17T16:09:53.558Z,30.40
2023-02-17T16:12:27.056Z,28.50
2023-02-17T16:14:56.869Z,27.90
2023-02-17T16:17:26.125Z,27.80
2023-02-17T16:19:54.321Z,26.20
2023-02-17T16:22:22.896Z,28.40
2023-02-17T16:24:50.952Z,27.60
2023-02-17T16:27:19.850Z,31.60
2023-02-17T16:29:48.023Z,29.50
2023-02-17T16:32:16.333Z,27.50
2023-02-17T16:34:44.810Z,29.00
2023-02-17T16:37:16.099Z,28.20
2023-02-17T16:39:45.793Z,25.10
2023-02-17T16:42:15.499Z,25.20
2023-02-17T16:44:44.458Z,29.60
2023-02-17T16:47:20.181Z,30.30
2023-02-17T16:49:48.655Z,28.80
2023-02-17T16:52:23.914Z,28.90
2023-02-17T16:54:52.321Z,27.40
2023-02-17T16:57:21.974Z,28.10
2023-02-17T17:02:21.818Z,29.10
2023-02-17T17:04:50.035Z,25.90
2023-02-17T17:07:18.103Z,27.60
2023-02-17T17:10:06.894Z,23.90
2023-02-17T17:12:34.940Z,30.10
2023-02-17T17:15:03.913Z,25.60
2023-02-17T17:17:40.000Z,24.70
2023-02-17T17:20:13.451Z,24.30
2023-02-17T17:22:41.435Z,23.30
2023-02-17T17:25:10.287Z,22.70
2023-02-17T17:27:38.250Z,23.40
2023-02-17T17:30:09.197Z,25.20
2023-02-17T17:32:37.261Z,20.40
2023-02-17T17:35:05.875Z,22.30
2023-02-17T17:37:33.714Z,21.30
2023-02-17T17:40:01.751Z,21.80
2023-02-17T17:42:29.593Z,19.50
2023-02-17T17:44:57.511Z,22.30
2023-02-17T17:47:30.159Z,24.00
2023-02-17T17:49:59.445Z,20.30
2023-02-17T17:52:40.152Z,17.50
2023-02-17T17:55:08.409Z,15.90
2023-02-17T17:57:36.643Z,18.70
2023-02-17T18:00:11.609Z,18.00
2023-02-17T18:02:43.075Z,19.10
2023-02-17T18:05:12.996Z,18.20
2023-02-17T18:07:43.135Z,18.60
2023-02-17T18:10:13.416Z,15.50
2023-02-17T18:12:44.062Z,19.40
2023-02-17T18:15:12.277Z,22.80
2023-02-17T18:17:42.140Z,19.70
2023-02-17T18:20:12.064Z,18.80
2023-02-17T18:22:40.454Z,18.10
2023-02-17T18:25:09.384Z,19.00
2023-02-17T18:27:43.208Z,16.80
2023-02-17T18:30:14.859Z,18.30
2023-02-17T18:32:44.221Z,17.80
2023-02-17T18:35:13.243Z,17.80
2023-02-17T18:37:41.548Z,16.60
2023-02-17T18:40:14.866Z,19.20
2023-02-17T18:42:45.524Z,19.40
2023-02-17T18:45:15.646Z,20.40
2023-02-17T18:47:44.171Z,18.10
2023-02-17T18:50:13.013Z,19.00
2023-02-17T18:52:42.673Z,17.20
2023-02-17T18:55:11.515Z,16.90
2023-02-17T18:57:39.695Z,16.00
2023-02-17T19:04:38.051Z,15.60
2023-02-17T19:07:07.575Z,18.50
2023-02-17T19:09:45.100Z,16.00
2023-02-17T19:12:16.288Z,21.60
2023-02-17T19:14:44.438Z,16.70
2023-02-17T19:17:12.548Z,15.90
2023-02-17T19:19:41.424Z,23.10
2023-02-17T19:22:10.211Z,22.30
2023-02-17T19:24:40.660Z,18.90
2023-02-17T19:27:08.889Z,18.50
2023-02-17T19:29:37.039Z,17.40
2023-02-17T19:32:05.401Z,23.90
2023-02-17T19:34:35.517Z,24.90
2023-02-17T19:37:03.468Z,21.90
2023-02-17T19:39:34.269Z,23.90
2023-02-17T19:42:15.795Z,24.10
2023-02-17T19:44:43.838Z,22.90
2023-02-17T19:47:11.839Z,22.90
2023-02-17T19:49:39.883Z,19.10
2023-02-17T19:52:08.447Z,20.20
2023-02-17T19:54:37.482Z,20.90
2023-02-17T19:57:05.732Z,23.10
2023-02-17T19:59:33.861Z,22.40
2023-02-17T20:02:01.952Z,23.20
2023-02-17T20:04:30.192Z,21.50
2023-02-17T20:06:58.631Z,22.00
2023-02-17T20:09:26.815Z,23.10
2023-02-17T20:11:54.896Z,27.10
2023-02-17T20:14:23.428Z,23.20
2023-02-17T20:16:53.456Z,29.40
2023-02-17T20:19:21.843Z,21.90
2023-02-17T20:21:50.057Z,25.60
2023-02-17T20:24:18.094Z,23.50
2023-02-17T20:26:47.537Z,23.70
2023-02-17T20:29:15.423Z,21.30
2023-02-17T20:31:43.748Z,19.10
2023-02-17T20:34:26.289Z,19.90
2023-02-17T20:39:23.783Z,12.80
2023-02-17T20:41:55.038Z,17.70
2023-02-17T20:44:27.699Z,17.20
2023-02-17T20:46:57.330Z,17.60
2023-02-17T20:49:25.718Z,18.20
2023-02-17T20:51:53.781Z,16.30
2023-02-17T20:54:24.744Z,13.70
2023-02-17T20:56:53.102Z,15.70
2023-02-17T20:59:21.218Z,16.00
2023-02-17T21:01:49.976Z,19.30
2023-02-17T21:04:18.790Z,15.90
2023-02-17T21:06:47.542Z,14.60
2023-02-17T21:09:18.412Z,13.40
2023-02-17T21:11:46.925Z,20.40
2023-02-17T21:14:15.122Z,15.90
2023-02-17T21:16:43.797Z,15.30
2023-02-17T21:19:11.666Z,14.00
2023-02-17T21:21:40.985Z,16.20
2023-02-17T21:24:09.291Z,18.30
2023-02-17T21:26:37.565Z,14.10
2023-02-17T21:29:05.517Z,17.80
2023-02-17T21:31:33.912Z,16.50
2023-02-17T21:34:02.036Z,18.60
2023-02-17T21:36:30.114Z,18.70
2023-02-17T21:38:59.071Z,17.60
2023-02-17T21:41:28.958Z,19.50
2023-02-17T21:44:17.440Z,12.10
2023-02-17T21:46:46.471Z,8.60
2023-02-17T21:49:14.712Z,7.80
2023-02-17T21:51:43.075Z,5.80
2023-02-17T21:54:11.863Z,5.40
2023-02-17T21:56:39.929Z,4.70
2023-02-17T21:59:08.259Z,5.40
2023-02-17T22:01:37.087Z,4.50
2023-02-17T22:04:06.086Z,5.40
2023-02-17T22:06:37.907Z,7.00
2023-02-17T22:09:08.017Z,5.30
2023-02-17T22:11:39.641Z,6.40
2023-02-17T22:14:12.347Z,6.00
2023-02-17T22:16:40.513Z,4.40
2023-02-17T22:19:12.590Z,3.10
2023-02-17T22:21:40.496Z,2.40
2023-02-17T22:24:09.219Z,4.90
2023-02-17T22:26:37.167Z,3.60
2023-02-17T22:29:05.810Z,3.10
2023-02-17T22:31:34.482Z,2.70
2023-02-17T22:34:06.890Z,4.40
2023-02-17T22:36:36.592Z,3.40
2023-02-17T22:39:06.906Z,3.60
2023-02-17T22:41:36.252Z,3.70
2023-02-17T22:44:04.398Z,4.20
2023-02-17T22:46:32.405Z,7.10
2023-02-17T22:49:00.867Z,7.10
2023-02-17T22:51:32.265Z,3.90
2023-02-17T22:54:01.655Z,2.60
2023-02-17T22:56:30.226Z,4.10
2023-02-17T22:59:01.007Z,4.10
2023-02-17T23:01:31.353Z,3.30
2023-02-17T23:04:00.018Z,2.70
2023-02-17T23:06:37.876Z,6.30
2023-02-17T23:09:08.601Z,3.90
2023-02-17T23:11:53.653Z,2.90
2023-02-17T23:14:33.096Z,5.50
2023-02-17T23:17:10.426Z,2.70
2023-02-17T23:19:39.707Z,5.30
2023-02-17T23:22:11.479Z,4.80
2023-02-17T23:24:39.286Z,7.00
2023-02-17T23:27:07.203Z,4.80
2023-02-17T23:29:35.215Z,4.60
2023-02-17T23:32:03.056Z,5.50
2023-02-17T23:34:31.169Z,6.50
2023-02-17T23:36:59.729Z,7.30
2023-02-17T23:39:28.156Z,9.70
2023-02-17T23:41:56.030Z,4.80
2023-02-17T23:44:24.138Z,6.20
2023-02-17T23:46:51.949Z,8.40
2023-02-17T23:49:19.792Z,8.90
2023-02-17T23:51:47.651Z,7.60
2023-02-17T23:54:16.020Z,6.20
2023-02-17T23:56:43.945Z,7.20
2023-02-17T23:59:11.954Z,10.40
